Burton-on-Trent, United Kingdom
Current Conditions -  °F | °C
As of 3:50 PM on Friday 31 Oct 2014 (Local Time) from EGNX Reporting Station
Clear Clear  
Wind Chill: 68°   Ceiling: Unl
Heat Index: 68°   Visibility: 6mi
Dew Point: 55°   Wind: 16mph
Humidity: 64%   Direction: 170°S
Pressure: 29.88"   Gusts: NA
Location:  52.79°N, 1.66°W
Report Text: EGNX 311450Z 17014KT CAVOK 20/13 Q1012
Loading
Personal Weather Stations






























Interactive Weather Map
Tropical Storm Tracking
New forecast layout! Learn more

10-Day Weather Forecast

Advertisements
Track Severe Weather on mobile